Terminal Aerodrome Forecast
Issued by NWS Columbia, SC

Home | Current Version | Previous Version | Text Only | Print | Product List | Glossary On
Versions: 1 2 3 4 5 6 7 8 9 10 11 12 13 14 15 16 17 18 19 20 21 22 23 24 25 26 27 28 29 30 31 32 33 34
000
FTUS42 KCAE 030520
TAFCAE
TAF
KCAE 030520Z 0306/0406 22005KT P6SM SCT035 BKN100
     FM030700 22004KT P6SM SCT035 BKN080
      TEMPO 0307/0310 5SM -RA BR BKN035
     FM031500 25012G20KT P6SM SCT040 BKN120
     FM031900 25014G24KT P6SM VCTS BKN040CB=

USA.gov is the U.S. government's official web portal to all federal, state and local government web resources and services.